createdAt,value
2018-06-23T00:00:59.626Z,101429.22
2018-06-23T00:03:27.532Z,101432.83
2018-06-23T00:05:55.457Z,101430.77
2018-06-23T00:08:23.301Z,101434.13
2018-06-23T00:10:51.294Z,101428.77
2018-06-23T00:13:19.112Z,101422.14
2018-06-23T00:15:46.983Z,101419.58
2018-06-23T00:18:14.885Z,101426.08
2018-06-23T00:20:42.764Z,101427.06
2018-06-23T00:23:10.633Z,101431.30
2018-06-23T00:25:44.165Z,101432.53
2018-06-23T00:28:12.061Z,101437.10
2018-06-23T00:30:39.981Z,101430.02
2018-06-23T00:33:07.865Z,101431.31
2018-06-23T00:35:35.801Z,101436.53
2018-06-23T00:38:03.721Z,101434.22
2018-06-23T00:40:31.581Z,101440.04
2018-06-23T00:42:59.437Z,101431.09
2018-06-23T00:45:27.284Z,101435.20
2018-06-23T00:47:55.192Z,101434.48
2018-06-23T00:50:23.093Z,101433.56
2018-06-23T00:52:50.957Z,101429.46
2018-06-23T00:55:18.843Z,101424.74
2018-06-23T00:57:46.739Z,101426.69
2018-06-23T01:00:14.798Z,101427.74
2018-06-23T01:02:46.441Z,101431.47
2018-06-23T01:05:14.582Z,101427.39
2018-06-23T01:07:42.606Z,101430.44
2018-06-23T01:10:10.489Z,101434.09
2018-06-23T01:12:38.311Z,101431.72
2018-06-23T01:15:06.302Z,101439.93
2018-06-23T01:17:34.243Z,101434.93
2018-06-23T01:20:02.161Z,101441.48
2018-06-23T01:22:30.100Z,101445.50
2018-06-23T01:24:58.014Z,101439.08
2018-06-23T01:27:25.925Z,101441.39
2018-06-23T01:29:53.801Z,101441.52
2018-06-23T01:32:21.673Z,101440.18
2018-06-23T01:34:49.621Z,101445.68
2018-06-23T01:37:17.485Z,101435.27
2018-06-23T01:39:45.337Z,101453.24
2018-06-23T01:42:13.205Z,101442.12
2018-06-23T01:44:45.062Z,101437.78
2018-06-23T01:47:12.884Z,101442.09
2018-06-23T01:49:40.745Z,101450.08
2018-06-23T01:52:08.644Z,101448.19
2018-06-23T01:54:36.561Z,101445.37
2018-06-23T01:57:04.937Z,101443.77
2018-06-23T01:59:32.809Z,101443.18
2018-06-23T02:02:00.732Z,101442.72
2018-06-23T02:04:28.630Z,101440.95
2018-06-23T02:06:56.565Z,101439.78
2018-06-23T02:09:24.617Z,101442.52
2018-06-23T02:11:52.599Z,101438.84
2018-06-23T02:14:26.244Z,101436.20
2018-06-23T02:16:59.713Z,101435.19
2018-06-23T02:19:33.246Z,101444.23
2018-06-23T02:22:07.058Z,101444.84
2018-06-23T02:24:40.582Z,101442.52
2018-06-23T02:27:14.096Z,101449.88
2018-06-23T02:29:47.676Z,101454.86
2018-06-23T02:32:21.157Z,101449.79
2018-06-23T02:34:54.722Z,101437.71
2018-06-23T02:37:22.590Z,101443.58
2018-06-23T02:39:50.405Z,101446.22
2018-06-23T02:42:18.287Z,101446.44
2018-06-23T02:44:46.133Z,101447.48
2018-06-23T02:47:17.802Z,101444.63
2018-06-23T02:49:45.769Z,101439.59
2018-06-23T02:52:13.680Z,101444.45
2018-06-23T02:54:41.602Z,101444.93
2018-06-23T02:57:09.462Z,101446.20
2018-06-23T02:59:37.391Z,101444.75
2018-06-23T03:02:05.350Z,101436.95
2018-06-23T03:04:33.214Z,101450.73
2018-06-23T03:07:01.161Z,101443.25
2018-06-23T03:09:29.084Z,101448.30
2018-06-23T03:11:56.940Z,101449.14
2018-06-23T03:14:24.791Z,101440.08
2018-06-23T03:16:52.942Z,101433.87
2018-06-23T03:19:20.843Z,101435.45
2018-06-23T03:21:48.814Z,101442.52
2018-06-23T03:24:16.905Z,101443.98
2018-06-23T03:26:44.814Z,101439.80
2018-06-23T03:29:12.712Z,101436.55
2018-06-23T03:31:40.665Z,101438.01
2018-06-23T03:34:08.505Z,101440.00
2018-06-23T03:36:36.537Z,101436.95
2018-06-23T03:39:08.061Z,101431.80
2018-06-23T03:41:35.926Z,101442.33
2018-06-23T03:44:03.904Z,101440.75
2018-06-23T03:46:31.797Z,101441.58
2018-06-23T03:48:59.705Z,101442.02
2018-06-23T03:51:27.894Z,101443.57
2018-06-23T03:53:55.787Z,101438.64
2018-06-23T03:56:24.023Z,101440.96
2018-06-23T03:58:52.332Z,101442.95
2018-06-23T04:01:20.150Z,101440.00
2018-06-23T04:03:48.077Z,101437.61
2018-06-23T04:06:15.994Z,101434.14
2018-06-23T04:08:43.864Z,101432.87
2018-06-23T04:11:11.801Z,101430.13
2018-06-23T04:13:39.710Z,101436.66
2018-06-23T04:16:07.591Z,101438.02
2018-06-23T04:18:35.526Z,101442.87
2018-06-23T04:21:03.444Z,101446.00
2018-06-23T04:23:31.314Z,101445.91
2018-06-23T04:25:59.273Z,101445.38
2018-06-23T04:28:27.197Z,101434.13
2018-06-23T04:30:56.585Z,101438.92
2018-06-23T04:33:24.436Z,101441.47
2018-06-23T04:35:52.417Z,101444.58
2018-06-23T04:38:20.265Z,101444.00
2018-06-23T04:40:48.151Z,101442.56
2018-06-23T04:43:16.028Z,101445.96
2018-06-23T04:45:43.957Z,101447.03
2018-06-23T04:48:11.938Z,101441.55
2018-06-23T04:50:39.852Z,101441.56
2018-06-23T04:53:07.717Z,101448.02
2018-06-23T04:55:35.670Z,101443.75
2018-06-23T04:58:03.595Z,101449.14
2018-06-23T05:00:31.615Z,101445.16
2018-06-23T05:02:59.544Z,101449.25
2018-06-23T05:05:27.372Z,101454.23
2018-06-23T05:07:55.221Z,101451.06
2018-06-23T05:10:23.149Z,101454.84
2018-06-23T05:12:55.718Z,101453.06
2018-06-23T05:15:23.645Z,101455.08
2018-06-23T05:17:51.561Z,101456.56
2018-06-23T05:20:19.563Z,101452.92
2018-06-23T05:22:47.413Z,101448.84
2018-06-23T05:25:15.502Z,101451.09
2018-06-23T05:27:43.444Z,101453.45
2018-06-23T05:30:11.350Z,101453.97
2018-06-23T05:32:39.217Z,101449.98
2018-06-23T05:35:07.257Z,101464.99
2018-06-23T05:37:35.124Z,101459.53
2018-06-23T05:40:03.034Z,101459.70
2018-06-23T05:42:30.993Z,101455.08
2018-06-23T05:44:58.797Z,101454.23
2018-06-23T05:47:26.699Z,101460.42
2018-06-23T05:49:54.613Z,101473.77
2018-06-23T05:52:22.721Z,101468.44
2018-06-23T05:54:50.585Z,101455.16
2018-06-23T05:57:18.516Z,101461.66
2018-06-23T05:59:46.399Z,101467.89
2018-06-23T06:02:14.357Z,101461.39
2018-06-23T06:04:42.790Z,101472.20
2018-06-23T06:07:11.040Z,101471.24
2018-06-23T06:09:38.860Z,101472.08
2018-06-23T06:12:06.801Z,101469.92
2018-06-23T06:14:34.726Z,101473.83
2018-06-23T06:17:21.445Z,101479.36
2018-06-23T06:19:50.805Z,101473.44
2018-06-23T06:22:18.669Z,101473.09
2018-06-23T06:24:46.965Z,101468.94
2018-06-23T06:27:14.908Z,101474.63
2018-06-23T06:29:43.004Z,101468.11
2018-06-23T06:32:11.085Z,101465.92
2018-06-23T06:34:38.962Z,101466.39
2018-06-23T06:37:07.234Z,101464.88
2018-06-23T06:39:35.469Z,101466.28
2018-06-23T06:42:03.740Z,101463.66
2018-06-23T06:44:32.928Z,101468.43
2018-06-23T06:47:00.749Z,101467.03
2018-06-23T06:49:28.742Z,101461.11
2018-06-23T06:51:56.706Z,101472.64
2018-06-23T06:54:24.658Z,101468.89
2018-06-23T06:56:54.542Z,101473.70
2018-06-23T06:59:22.600Z,101468.98
2018-06-23T07:01:50.505Z,101465.18
2018-06-23T07:04:19.204Z,101471.01
2018-06-23T07:06:47.113Z,101477.97
2018-06-23T07:09:15.325Z,101469.68
2018-06-23T07:11:43.989Z,101463.63
2018-06-23T07:14:11.925Z,101469.50
2018-06-23T07:16:40.577Z,101472.31
2018-06-23T07:19:08.484Z,101462.20
2018-06-23T07:21:36.328Z,101458.09
2018-06-23T07:24:05.104Z,101462.58
2018-06-23T07:26:33.769Z,101468.01
2018-06-23T07:29:02.187Z,101471.50
2018-06-23T07:31:30.035Z,101462.73
2018-06-23T07:33:57.878Z,101461.30
2018-06-23T07:36:25.852Z,101450.00
2018-06-23T07:38:53.820Z,101448.17
2018-06-23T07:41:21.689Z,101439.63
2018-06-23T07:43:49.575Z,101439.90
2018-06-23T07:46:17.559Z,101436.03
2018-06-23T07:48:45.432Z,101439.91
2018-06-23T07:51:13.501Z,101438.58
2018-06-23T07:53:41.518Z,101435.80
2018-06-23T07:56:09.859Z,101440.31
2018-06-23T07:58:37.953Z,101437.52
2018-06-23T08:01:05.877Z,101425.02
2018-06-23T08:03:34.972Z,101430.02
2018-06-23T08:06:02.858Z,101425.55
2018-06-23T08:08:34.969Z,101429.74
2018-06-23T08:11:03.207Z,101427.52
2018-06-23T08:13:31.085Z,101420.56
2018-06-23T08:16:01.740Z,101413.05
2018-06-23T08:18:29.708Z,101413.56
2018-06-23T08:21:05.338Z,101412.47
2018-06-23T08:23:33.276Z,101410.70
2018-06-23T08:26:09.170Z,101409.50
2018-06-23T08:28:44.587Z,101414.76
2018-06-23T08:31:13.285Z,101410.79
2018-06-23T08:33:41.238Z,101423.52
2018-06-23T08:36:14.387Z,101421.22
2018-06-23T08:38:42.398Z,101425.81
2018-06-23T08:41:10.377Z,101428.14
2018-06-23T08:43:38.264Z,101425.22
2018-06-23T08:46:06.104Z,101417.95
2018-06-23T08:48:34.053Z,101411.11
2018-06-23T08:51:01.989Z,101415.34
2018-06-23T08:53:29.879Z,101416.51
2018-06-23T08:55:57.704Z,101410.72
2018-06-23T08:58:25.646Z,101403.30
2018-06-23T09:00:53.585Z,101395.45
2018-06-23T09:03:21.481Z,101392.94
2018-06-23T09:05:49.389Z,101388.44
2018-06-23T09:08:17.260Z,101392.23
2018-06-23T09:10:45.142Z,101388.53
2018-06-23T09:13:13.089Z,101392.20
2018-06-23T09:15:40.959Z,101389.20
2018-06-23T09:18:08.841Z,101391.16
2018-06-23T09:20:36.748Z,101387.47
2018-06-23T09:23:08.464Z,101382.34
2018-06-23T09:25:36.437Z,101382.59
2018-06-23T09:28:04.463Z,101382.72
2018-06-23T09:30:32.338Z,101376.86
2018-06-23T09:33:00.173Z,101378.77
2018-06-23T09:35:28.053Z,101362.30
2018-06-23T09:37:55.916Z,101365.77
2018-06-23T09:40:23.801Z,101368.36
2018-06-23T09:42:51.709Z,101366.47
2018-06-23T09:45:19.633Z,101364.84
2018-06-23T09:47:47.550Z,101361.48
2018-06-23T09:50:15.420Z,101358.89
2018-06-23T09:52:43.349Z,101356.50
2018-06-23T09:55:11.265Z,101361.74
2018-06-23T09:57:39.086Z,101356.38
2018-06-23T10:00:07.140Z,101367.55
2018-06-23T10:02:34.996Z,101372.38
2018-06-23T10:05:06.384Z,101372.52
2018-06-23T10:07:34.384Z,101373.52
2018-06-23T10:10:02.315Z,101375.78
2018-06-23T10:12:30.260Z,101377.48
2018-06-23T10:14:58.185Z,101385.20
2018-06-23T10:17:26.129Z,101379.73
2018-06-23T10:19:54.063Z,101373.13
2018-06-23T10:22:21.914Z,101374.05
2018-06-23T10:24:49.885Z,101378.56
2018-06-23T10:27:17.797Z,101378.91
2018-06-23T10:29:45.687Z,101382.66
2018-06-23T10:32:13.680Z,101380.30
2018-06-23T10:34:41.602Z,101370.64
2018-06-23T10:37:09.472Z,101373.34
2018-06-23T10:39:37.481Z,101363.83
2018-06-23T10:42:05.697Z,101362.86
2018-06-23T10:44:33.613Z,101369.08
2018-06-23T10:47:01.542Z,101368.42
2018-06-23T10:49:29.413Z,101357.72
2018-06-23T10:51:57.351Z,101357.16
2018-06-23T10:54:25.613Z,101357.34
2018-06-23T10:56:53.493Z,101364.77
2018-06-23T10:59:22.425Z,101358.63
2018-06-23T11:01:50.356Z,101358.02
2018-06-23T11:04:18.314Z,101353.27
2018-06-23T11:06:46.198Z,101360.14
2018-06-23T11:09:14.137Z,101364.51
2018-06-23T11:11:42.461Z,101363.94
2018-06-23T11:14:11.280Z,101370.48
2018-06-23T11:16:39.129Z,101369.30
2018-06-23T11:19:07.165Z,101374.80
2018-06-23T11:21:35.112Z,101376.09
2018-06-23T11:24:03.117Z,101365.87
2018-06-23T11:26:31.061Z,101360.73
2018-06-23T11:28:58.957Z,101358.56
2018-06-23T11:31:26.876Z,101363.33
2018-06-23T11:33:54.834Z,101351.56
2018-06-23T11:36:22.757Z,101348.08
2018-06-23T11:38:51.458Z,101348.42
2018-06-23T11:41:19.755Z,101358.98
2018-06-23T11:43:48.277Z,101354.78
2018-06-23T11:46:16.175Z,101349.05
2018-06-23T11:48:44.070Z,101343.88
2018-06-23T11:51:12.004Z,101348.91
2018-06-23T11:53:39.926Z,101347.97
2018-06-23T11:56:07.869Z,101339.16
2018-06-23T11:58:35.780Z,101347.61
2018-06-23T12:01:03.720Z,101348.25
2018-06-23T12:03:31.648Z,101342.46
2018-06-23T12:06:00.000Z,101343.75
2018-06-23T12:08:27.991Z,101335.40
2018-06-23T12:10:55.812Z,101334.61
2018-06-23T12:13:23.684Z,101324.41
2018-06-23T12:15:51.645Z,101333.82
2018-06-23T12:18:19.561Z,101336.47
2018-06-23T12:20:47.512Z,101334.16
2018-06-23T12:23:15.617Z,101325.75
2018-06-23T12:25:43.510Z,101337.11
2018-06-23T12:28:11.341Z,101326.40
2018-06-23T12:30:39.422Z,101333.41
2018-06-23T12:33:07.301Z,101332.95
2018-06-23T12:35:35.224Z,101332.45
2018-06-23T12:38:03.202Z,101333.72
2018-06-23T12:40:31.095Z,101336.66
2018-06-23T12:42:58.980Z,101328.67
2018-06-23T12:45:26.922Z,101330.72
2018-06-23T12:47:54.869Z,101332.63
2018-06-23T12:50:22.804Z,101333.75
2018-06-23T12:52:50.669Z,101333.09
2018-06-23T12:55:18.543Z,101336.23
2018-06-23T12:57:46.401Z,101330.94
2018-06-23T13:00:14.221Z,101324.13
2018-06-23T13:02:42.216Z,101332.11
2018-06-23T13:05:10.161Z,101333.81
2018-06-23T13:07:38.063Z,101326.52
2018-06-23T13:10:06.049Z,101335.61
2018-06-23T13:12:35.060Z,101329.88
2018-06-23T13:15:03.071Z,101325.37
2018-06-23T13:17:30.999Z,101327.67
2018-06-23T13:19:58.903Z,101325.96
2018-06-23T13:22:26.767Z,101315.91
2018-06-23T13:24:54.661Z,101318.58
2018-06-23T13:27:22.541Z,101318.48
2018-06-23T13:29:50.471Z,101320.94
2018-06-23T13:32:18.470Z,101326.91
2018-06-23T13:34:46.267Z,101329.97
2018-06-23T13:37:14.168Z,101326.59
2018-06-23T13:39:42.041Z,101322.20
2018-06-23T13:42:09.953Z,101312.07
2018-06-23T13:44:37.830Z,101313.93
2018-06-23T13:47:06.426Z,101306.23
2018-06-23T13:49:34.312Z,101307.28
2018-06-23T13:52:02.213Z,101295.41
2018-06-23T13:54:34.223Z,101299.15
2018-06-23T13:57:02.166Z,101294.42
2018-06-23T13:59:30.141Z,101297.76
2018-06-23T14:01:57.973Z,101291.40
2018-06-23T14:04:25.860Z,101289.80
2018-06-23T14:06:53.751Z,101282.39
2018-06-23T14:09:21.641Z,101288.97
2018-06-23T14:11:49.582Z,101283.87
2018-06-23T14:14:17.561Z,101288.97
2018-06-23T14:16:45.433Z,101285.48
2018-06-23T14:19:13.328Z,101274.98
2018-06-23T14:21:41.286Z,101271.34
2018-06-23T14:24:09.201Z,101266.95
2018-06-23T14:26:37.129Z,101268.80
2018-06-23T14:29:05.204Z,101270.69
2018-06-23T14:31:33.339Z,101262.28
2018-06-23T14:34:01.205Z,101268.24
2018-06-23T14:36:32.861Z,101262.01
2018-06-23T14:39:00.656Z,101264.48
2018-06-23T14:41:28.537Z,101257.38
2018-06-23T14:43:56.453Z,101253.28
2018-06-23T14:46:24.277Z,101250.90
2018-06-23T14:48:52.137Z,101253.02
2018-06-23T14:51:20.105Z,101251.47
2018-06-23T14:53:48.019Z,101247.16
2018-06-23T14:56:15.987Z,101244.47
2018-06-23T14:58:43.848Z,101237.51
2018-06-23T15:01:11.754Z,101238.64
2018-06-23T15:03:39.677Z,101239.67
2018-06-23T15:06:08.373Z,101244.67
2018-06-23T15:08:53.581Z,101232.23
2018-06-23T15:11:38.908Z,101231.52
2018-06-23T15:14:06.810Z,101230.80
2018-06-23T15:16:35.045Z,101236.31
2018-06-23T15:19:03.022Z,101227.86
2018-06-23T15:21:30.903Z,101225.44
2018-06-23T15:23:58.838Z,101228.08
2018-06-23T15:26:26.709Z,101227.13
2018-06-23T15:28:54.662Z,101224.45
2018-06-23T15:31:22.577Z,101221.36
2018-06-23T15:33:50.455Z,101215.26
2018-06-23T15:36:18.373Z,101212.95
2018-06-23T15:38:47.674Z,101217.64
2018-06-23T15:41:15.505Z,101215.23
2018-06-23T15:43:43.425Z,101213.17
2018-06-23T15:46:11.341Z,101210.66
2018-06-23T15:48:39.228Z,101205.11
2018-06-23T15:51:07.176Z,101201.81
2018-06-23T15:53:35.041Z,101196.72
2018-06-23T15:56:03.161Z,101191.17
2018-06-23T15:58:31.089Z,101196.58
2018-06-23T16:00:59.359Z,101180.40
2018-06-23T16:03:26.948Z,101194.94
2018-06-23T16:05:54.831Z,101182.45
2018-06-23T16:08:22.635Z,101173.13
2018-06-23T16:10:50.536Z,101178.66
2018-06-23T16:13:18.425Z,101185.10
2018-06-23T16:15:46.309Z,101180.38
2018-06-23T16:18:14.171Z,101179.19
2018-06-23T16:20:42.136Z,101174.70
2018-06-23T16:23:10.098Z,101179.37
2018-06-23T16:25:37.958Z,101178.08
2018-06-23T16:28:05.913Z,101185.46
2018-06-23T16:30:33.770Z,101183.97
2018-06-23T16:33:01.673Z,101185.53
2018-06-23T16:35:29.648Z,101173.89
2018-06-23T16:37:57.436Z,101177.97
2018-06-23T16:40:26.137Z,101176.77
2018-06-23T16:42:54.040Z,101179.42
2018-06-23T16:45:21.985Z,101171.53
2018-06-23T16:47:49.953Z,101172.00
2018-06-23T16:50:19.360Z,101168.97
2018-06-23T16:52:47.289Z,101170.46
2018-06-23T16:55:15.196Z,101166.90
2018-06-23T16:57:43.105Z,101161.44
2018-06-23T17:00:11.009Z,101166.95
2018-06-23T17:02:38.876Z,101155.80
2018-06-23T17:05:06.812Z,101159.29
2018-06-23T17:07:34.723Z,101161.96
2018-06-23T17:10:02.709Z,101161.93
2018-06-23T17:12:30.646Z,101177.30
2018-06-23T17:14:58.524Z,101164.61
2018-06-23T17:17:26.349Z,101157.85
2018-06-23T17:19:54.225Z,101158.46
2018-06-23T17:22:22.245Z,101158.41
2018-06-23T17:24:50.123Z,101154.24
2018-06-23T17:27:17.933Z,101162.13
2018-06-23T17:29:45.801Z,101155.06
2018-06-23T17:32:13.657Z,101151.34
2018-06-23T17:34:41.528Z,101153.41
2018-06-23T17:37:09.505Z,101143.85
2018-06-23T17:39:37.427Z,101148.16
2018-06-23T17:42:05.521Z,101146.28
2018-06-23T17:44:36.980Z,101145.86
2018-06-23T17:47:05.232Z,101152.33
2018-06-23T17:49:33.088Z,101151.62
2018-06-23T17:52:01.052Z,101152.22
2018-06-23T17:54:29.293Z,101152.13
2018-06-23T17:56:57.241Z,101157.72
2018-06-23T17:59:25.097Z,101148.28
2018-06-23T18:01:53.181Z,101152.16
2018-06-23T18:04:21.026Z,101149.22
2018-06-23T18:06:51.145Z,101146.98
2018-06-23T18:09:19.224Z,101150.17
2018-06-23T18:11:47.241Z,101149.59
2018-06-23T18:14:16.081Z,101155.73
2018-06-23T18:16:44.017Z,101153.22
2018-06-23T18:19:11.906Z,101158.89
2018-06-23T18:21:39.724Z,101155.36
2018-06-23T18:24:07.701Z,101159.23
2018-06-23T18:26:35.592Z,101153.15
2018-06-23T18:29:03.760Z,101157.62
2018-06-23T18:31:31.741Z,101152.64
2018-06-23T18:54:22.751Z,101153.89
2018-06-23T18:56:50.774Z,101161.66
2018-06-23T18:59:18.778Z,101161.93
2018-06-23T19:01:46.649Z,101168.81
2018-06-23T19:04:14.535Z,101164.39
2018-06-23T19:06:42.389Z,101168.26
2018-06-23T19:09:11.069Z,101167.97
2018-06-23T19:11:38.982Z,101164.31
2018-06-23T19:14:08.263Z,101168.48
2018-06-23T19:16:36.348Z,101170.66
2018-06-23T19:19:04.408Z,101174.25
2018-06-23T19:21:32.404Z,101174.17
2018-06-23T19:24:00.205Z,101174.73
2018-06-23T19:26:28.197Z,101171.66
2018-06-23T19:28:56.157Z,101174.42
2018-06-23T19:31:24.097Z,101176.58
2018-06-23T19:33:52.031Z,101182.59
2018-06-23T19:36:19.874Z,101182.00
2018-06-23T19:38:47.813Z,101181.65
2018-06-23T19:41:30.401Z,101182.24
2018-06-23T19:43:58.260Z,101187.91
2018-06-23T19:46:26.142Z,101186.50
2018-06-23T19:48:54.317Z,101188.98
2018-06-23T19:51:22.231Z,101191.78
2018-06-23T19:53:50.158Z,101201.55
2018-06-23T19:56:18.045Z,101205.91
2018-06-23T19:58:45.962Z,101201.64
2018-06-23T20:01:13.916Z,101201.86
2018-06-23T20:03:41.847Z,101198.27
2018-06-23T20:06:09.745Z,101194.23
2018-06-23T20:08:37.730Z,101198.80
2018-06-23T20:11:05.667Z,101200.72
2018-06-23T20:13:33.556Z,101207.06
2018-06-23T20:16:01.536Z,101199.61
2018-06-23T20:18:29.509Z,101201.68
2018-06-23T20:20:57.376Z,101198.30
2018-06-23T20:23:25.401Z,101207.48
2018-06-23T20:25:53.353Z,101203.63
2018-06-23T20:28:21.248Z,101198.77
2018-06-23T20:30:49.209Z,101205.85
2018-06-23T20:33:17.362Z,101208.09
2018-06-23T20:35:45.357Z,101208.26
2018-06-23T20:38:13.252Z,101205.14
2018-06-23T20:40:41.132Z,101210.61
2018-06-23T20:43:09.012Z,101210.66
2018-06-23T20:45:37.077Z,101210.24
2018-06-23T20:48:04.993Z,101217.69
2018-06-23T20:50:33.268Z,101209.02
2018-06-23T20:53:08.011Z,101209.19
2018-06-23T20:55:36.297Z,101217.91
2018-06-23T20:58:05.394Z,101215.06
2018-06-23T21:00:34.261Z,101212.08
2018-06-23T21:03:02.177Z,101210.81
2018-06-23T21:05:30.090Z,101216.05
2018-06-23T21:07:57.940Z,101210.88
2018-06-23T21:10:36.115Z,101217.28
2018-06-23T21:13:04.114Z,101215.38
2018-06-23T21:15:32.266Z,101216.55
2018-06-23T21:18:00.341Z,101219.28
2018-06-23T21:20:28.389Z,101215.34
2018-06-23T21:22:56.285Z,101208.80
2018-06-23T21:25:24.261Z,101211.44
2018-06-23T21:27:52.153Z,101209.23
2018-06-23T21:30:20.082Z,101207.48
2018-06-23T21:32:48.098Z,101205.42
2018-06-23T21:35:16.055Z,101207.73
2018-06-23T21:37:44.082Z,101200.14
2018-06-23T21:40:11.922Z,101204.94
2018-06-23T21:42:39.876Z,101202.76
2018-06-23T21:45:07.961Z,101196.64
2018-06-23T21:47:36.342Z,101194.67
2018-06-23T21:50:04.756Z,101194.09
2018-06-23T21:52:33.530Z,101190.83
2018-06-23T21:55:05.853Z,101191.26
2018-06-23T21:57:34.044Z,101190.69
2018-06-23T22:00:04.371Z,101185.48
2018-06-23T22:02:32.255Z,101193.05
2018-06-23T22:05:00.189Z,101188.12
2018-06-23T22:07:28.086Z,101187.44
2018-06-23T22:09:56.046Z,101186.31
2018-06-23T22:12:24.065Z,101188.81
2018-06-23T22:14:51.909Z,101187.88
2018-06-23T22:17:19.877Z,101187.26
2018-06-23T22:19:47.905Z,101181.39
2018-06-23T22:22:15.826Z,101186.20
2018-06-23T22:24:43.683Z,101190.19
2018-06-23T22:27:11.668Z,101187.58
2018-06-23T22:29:39.634Z,101184.68
2018-06-23T22:32:07.577Z,101184.93
2018-06-23T22:34:35.561Z,101185.11
2018-06-23T22:37:03.738Z,101179.18
2018-06-23T22:39:31.644Z,101176.86
2018-06-23T22:41:59.602Z,101180.91
2018-06-23T22:44:27.578Z,101180.36
2018-06-23T22:46:56.460Z,101177.69
2018-06-23T22:49:24.612Z,101187.64
2018-06-23T22:51:52.521Z,101188.07
2018-06-23T22:54:20.473Z,101188.48
2018-06-23T22:56:48.401Z,101187.50
2018-06-23T22:59:16.404Z,101182.65
2018-06-23T23:01:44.336Z,101185.77
2018-06-23T23:04:12.293Z,101184.78
2018-06-23T23:06:40.157Z,101182.97
2018-06-23T23:09:09.613Z,101181.78
2018-06-23T23:11:37.488Z,101188.13
2018-06-23T23:14:06.318Z,101183.95
2018-06-23T23:16:34.461Z,101178.73
2018-06-23T23:19:02.485Z,101176.45
2018-06-23T23:21:30.509Z,101175.41
2018-06-23T23:23:58.433Z,101176.86
2018-06-23T23:26:26.361Z,101176.09
2018-06-23T23:28:54.340Z,101166.32
2018-06-23T23:31:22.421Z,101171.75
2018-06-23T23:33:50.238Z,101178.20
2018-06-23T23:36:18.133Z,101174.09
2018-06-23T23:38:46.046Z,101168.45
2018-06-23T23:41:13.948Z,101168.05
2018-06-23T23:43:41.927Z,101173.51
2018-06-23T23:46:09.873Z,101167.89
2018-06-23T23:48:37.828Z,101174.47
2018-06-23T23:51:05.749Z,101167.08
2018-06-23T23:53:33.696Z,101166.19
2018-06-23T23:56:01.693Z,101165.61
2018-06-23T23:58:29.673Z,101165.39
